createdAt,value
2022-12-14T00:02:37.211Z,58.02
2022-12-14T00:07:40.478Z,50.23
2022-12-14T00:12:43.591Z,45.27
2022-12-14T00:17:46.596Z,42.78
2022-12-14T00:22:49.600Z,48.42
2022-12-14T00:27:52.710Z,52.91
2022-12-14T00:32:55.716Z,56.75
2022-12-14T00:37:58.620Z,64.31
2022-12-14T00:43:01.627Z,58.96
2022-12-14T00:48:05.521Z,47.97
2022-12-14T00:53:09.892Z,44.55
2022-12-14T00:58:15.663Z,41.62
2022-12-14T01:03:18.952Z,46.23
2022-12-14T01:08:23.184Z,52.01
2022-12-14T01:13:26.428Z,53.79
2022-12-14T01:18:29.641Z,59.41
2022-12-14T01:23:32.646Z,63.85
2022-12-14T01:28:36.421Z,50.26
2022-12-14T01:33:39.883Z,45.13
2022-12-14T01:38:43.859Z,40.77
2022-12-14T01:44:01.841Z,45.84
2022-12-14T01:49:11.018Z,51.06
2022-12-14T01:54:15.974Z,53.16
2022-12-14T01:59:25.633Z,61.58
2022-12-14T02:04:29.293Z,59.01
2022-12-14T02:09:37.542Z,47.24
2022-12-14T02:14:41.958Z,43.76
2022-12-14T02:19:47.079Z,40.90
2022-12-14T02:25:27.770Z,46.36
2022-12-14T02:30:39.560Z,51.37
2022-12-14T02:35:54.058Z,52.22
2022-12-14T02:41:03.310Z,64.49
2022-12-14T02:46:30.333Z,54.88
2022-12-14T02:52:05.135Z,48.51
2022-12-14T02:57:21.741Z,43.56
2022-12-14T03:02:25.694Z,42.64
2022-12-14T03:07:32.788Z,49.18
2022-12-14T03:12:39.685Z,55.61
2022-12-14T03:17:49.274Z,64.95
2022-12-14T03:23:15.088Z,60.89
2022-12-14T03:28:29.261Z,51.18
2022-12-14T03:33:34.005Z,54.90
2022-12-14T03:38:42.949Z,61.06
2022-12-14T03:44:04.008Z,61.60
2022-12-14T03:49:30.127Z,45.84
2022-12-14T03:55:02.410Z,39.77
2022-12-14T04:00:09.603Z,36.86
2022-12-14T04:05:25.606Z,41.02
2022-12-14T04:10:58.339Z,46.42
2022-12-14T04:16:25.479Z,55.97
2022-12-14T04:21:31.384Z,53.59
2022-12-14T04:26:40.507Z,46.18
2022-12-14T04:31:49.314Z,44.11
2022-12-14T04:36:57.157Z,43.09
2022-12-14T04:42:03.174Z,42.17
2022-12-14T04:47:11.357Z,41.27
2022-12-14T04:52:24.650Z,40.44
2022-12-14T04:57:36.676Z,40.60
2022-12-14T05:03:02.030Z,49.60
2022-12-14T05:08:20.055Z,60.07
2022-12-14T05:13:28.943Z,60.54
2022-12-14T05:18:35.184Z,52.56
2022-12-14T05:23:38.194Z,61.47
2022-12-14T05:28:44.666Z,62.03
2022-12-14T05:33:50.471Z,51.91
2022-12-14T05:38:53.659Z,57.23
2022-12-14T05:43:56.769Z,65.04
2022-12-14T05:48:59.774Z,62.03
2022-12-14T05:54:02.889Z,49.45
2022-12-14T05:59:05.889Z,52.58
2022-12-14T06:04:11.931Z,55.79
2022-12-14T06:09:16.293Z,64.34
2022-12-14T06:14:19.725Z,48.57
2022-12-14T06:19:22.957Z,40.53
2022-12-14T06:24:26.096Z,37.22
2022-12-14T06:29:29.255Z,34.73
2022-12-14T06:34:38.105Z,34.72
2022-12-14T06:39:42.433Z,40.65
2022-12-14T06:44:46.770Z,46.19
2022-12-14T06:49:50.852Z,55.36
2022-12-14T06:54:53.805Z,43.86
2022-12-14T06:59:56.716Z,40.16
2022-12-14T07:04:59.784Z,39.33
2022-12-14T07:10:03.719Z,36.92
2022-12-14T07:15:08.055Z,33.89
2022-12-14T07:20:12.028Z,39.12
2022-12-14T07:25:15.122Z,43.57
2022-12-14T07:30:18.331Z,45.10
2022-12-14T07:35:21.449Z,50.50
2022-12-14T07:40:24.447Z,53.01
2022-12-14T07:45:27.555Z,53.04
2022-12-14T07:50:30.669Z,52.84
2022-12-14T07:55:35.412Z,52.14
2022-12-14T08:00:38.420Z,50.52
2022-12-14T08:05:41.626Z,52.10
2022-12-14T08:10:48.885Z,52.08
2022-12-14T08:15:51.956Z,58.36
2022-12-14T08:20:55.051Z,63.84
2022-12-14T08:25:59.900Z,55.99
2022-12-14T08:31:11.835Z,54.58
2022-12-14T08:36:20.662Z,63.20
2022-12-14T08:41:24.996Z,59.63
2022-12-14T08:46:30.131Z,49.85
2022-12-14T08:51:37.976Z,53.87
2022-12-14T08:56:41.185Z,58.82
2022-12-14T09:01:44.342Z,65.90
2022-12-14T09:06:47.508Z,53.86
2022-12-14T09:11:50.822Z,58.05
2022-12-14T09:16:54.034Z,61.51
2022-12-14T09:21:57.192Z,63.22
2022-12-14T09:27:01.484Z,51.77
2022-12-14T09:32:05.482Z,57.92
2022-12-14T09:37:08.489Z,61.23
2022-12-14T09:42:30.670Z,58.95
2022-12-14T09:48:21.392Z,51.42
2022-12-14T09:53:26.076Z,60.07
2022-12-14T09:58:31.368Z,64.43
2022-12-14T10:03:59.888Z,55.08
2022-12-14T10:09:25.338Z,58.56
2022-12-14T10:15:14.018Z,61.20
2022-12-14T10:20:23.574Z,57.20
2022-12-14T10:25:29.991Z,62.81
2022-12-14T10:30:33.066Z,55.26
2022-12-14T10:35:43.449Z,58.83
2022-12-14T10:40:53.830Z,62.98
2022-12-14T10:46:18.670Z,57.16
2022-12-14T10:51:38.441Z,58.53
2022-12-14T10:56:43.556Z,63.78
2022-12-14T11:02:01.481Z,55.24
2022-12-14T11:07:07.592Z,57.21
2022-12-14T11:12:13.724Z,63.53
2022-12-14T11:17:29.728Z,52.10
2022-12-14T11:22:51.011Z,56.81
2022-12-14T11:27:54.372Z,62.53
2022-12-14T11:32:57.591Z,54.58
2022-12-14T11:38:00.903Z,60.10
2022-12-14T11:43:04.934Z,61.77
2022-12-14T11:48:13.782Z,54.40
2022-12-14T11:53:19.600Z,61.31
2022-12-14T11:58:29.950Z,59.92
2022-12-14T12:03:41.800Z,57.81
2022-12-14T12:08:45.713Z,62.14
2022-12-14T12:13:52.565Z,56.97
2022-12-14T12:19:15.767Z,62.69
2022-12-14T12:24:25.411Z,58.86
2022-12-14T12:29:37.625Z,62.62
2022-12-14T12:35:01.372Z,58.35
2022-12-14T12:40:35.562Z,63.04
2022-12-14T12:45:51.644Z,57.22
2022-12-14T12:51:04.299Z,63.08
2022-12-14T12:56:36.295Z,57.71
2022-12-14T13:01:44.229Z,62.61
2022-12-14T13:07:18.044Z,57.82
2022-12-14T13:12:31.190Z,63.61
2022-12-14T13:17:49.681Z,58.66
2022-12-14T13:22:53.802Z,63.63
2022-12-14T13:28:17.274Z,59.51
2022-12-14T13:33:33.697Z,62.76
2022-12-14T13:38:55.341Z,59.37
2022-12-14T13:44:21.269Z,61.19
2022-12-14T13:49:26.980Z,61.03
2022-12-14T13:54:32.518Z,59.70
2022-12-14T13:59:41.672Z,61.97
2022-12-14T14:04:45.051Z,57.74
2022-12-14T14:09:58.914Z,63.40
2022-12-14T14:15:04.822Z,58.08
2022-12-14T14:20:44.981Z,52.77
2022-12-14T14:25:51.894Z,50.12
2022-12-14T14:30:58.248Z,47.83
2022-12-14T14:36:15.209Z,45.83
2022-12-14T14:41:29.132Z,44.11
2022-12-14T14:46:38.397Z,43.21
2022-12-14T14:51:41.537Z,43.29
2022-12-14T14:56:46.086Z,43.88
2022-12-14T15:02:01.652Z,44.17
2022-12-14T15:07:09.133Z,43.80
2022-12-14T15:12:44.387Z,44.04
2022-12-14T15:17:48.125Z,43.74
2022-12-14T15:22:56.301Z,43.32
2022-12-14T15:28:08.421Z,43.88
2022-12-14T15:33:23.497Z,42.35
2022-12-14T15:38:32.182Z,41.00
2022-12-14T15:43:37.721Z,38.97
2022-12-14T15:48:42.052Z,37.86
2022-12-14T15:53:50.766Z,38.42
2022-12-14T15:58:58.104Z,38.89
2022-12-14T16:04:10.824Z,39.80
2022-12-14T16:09:36.857Z,40.67
2022-12-14T16:14:57.740Z,40.09
2022-12-14T16:20:23.144Z,39.80
2022-12-14T16:25:26.250Z,38.79
2022-12-14T16:30:34.165Z,37.80
2022-12-14T16:35:38.564Z,37.39
2022-12-14T16:41:02.510Z,38.20
2022-12-14T16:46:05.771Z,38.97
2022-12-14T16:51:58.265Z,39.53
2022-12-14T16:56:56.436Z,39.33
2022-12-14T17:01:59.929Z,39.05
2022-12-14T17:07:04.007Z,38.35
2022-12-14T17:12:14.514Z,37.71
2022-12-14T17:17:27.554Z,38.57
2022-12-14T17:22:33.336Z,38.56
2022-12-14T17:27:36.339Z,40.25
2022-12-14T17:32:39.438Z,41.46
2022-12-14T17:37:42.654Z,45.22
2022-12-14T17:42:51.819Z,46.12
2022-12-14T17:47:55.097Z,44.74
2022-12-14T17:52:58.631Z,43.49
2022-12-14T17:58:01.747Z,44.73
2022-12-14T18:03:05.577Z,45.20
2022-12-14T18:08:09.587Z,45.28
2022-12-14T18:13:13.607Z,45.07
2022-12-14T18:18:21.009Z,46.00
2022-12-14T18:23:24.551Z,45.62
2022-12-14T18:28:27.639Z,43.87
2022-12-14T18:33:33.633Z,43.40
2022-12-14T18:38:36.749Z,43.70
2022-12-14T18:43:43.690Z,43.10
2022-12-14T18:48:47.371Z,41.44
2022-12-14T18:53:51.298Z,41.14
2022-12-14T18:58:54.918Z,41.26
2022-12-14T19:03:59.699Z,43.51
2022-12-14T19:09:04.005Z,45.09
2022-12-14T19:14:07.450Z,45.04
2022-12-14T19:19:10.426Z,44.33
2022-12-14T19:24:14.666Z,42.26
2022-12-14T19:29:17.668Z,42.31
2022-12-14T19:34:20.677Z,41.58
2022-12-14T19:39:23.674Z,39.78
2022-12-14T19:44:27.614Z,38.33
2022-12-14T19:49:31.242Z,37.87
2022-12-14T19:54:35.117Z,37.00
2022-12-14T19:59:38.080Z,36.80
2022-12-14T20:04:41.523Z,37.77
2022-12-14T20:09:44.414Z,39.06
2022-12-14T20:14:49.437Z,40.28
2022-12-14T20:19:52.853Z,39.44
2022-12-14T20:24:55.852Z,40.25
2022-12-14T20:29:58.961Z,41.32
2022-12-14T20:35:01.870Z,41.77
2022-12-14T20:40:05.427Z,43.04
2022-12-14T20:45:08.976Z,42.74
2022-12-14T20:50:13.644Z,42.29
2022-12-14T20:55:16.864Z,41.22
2022-12-14T21:00:20.073Z,41.21
2022-12-14T21:05:23.286Z,40.85
2022-12-14T21:10:26.396Z,39.45
2022-12-14T21:15:29.402Z,37.66
2022-12-14T21:20:32.405Z,36.71
2022-12-14T21:25:35.516Z,36.34
2022-12-14T21:30:38.647Z,36.24
2022-12-14T21:35:41.629Z,36.68
2022-12-14T21:41:11.974Z,36.15
2022-12-14T21:46:16.244Z,35.33
2022-12-14T21:51:19.523Z,35.67
2022-12-14T21:56:40.962Z,36.26
2022-12-14T22:01:44.762Z,37.13
2022-12-14T22:06:49.654Z,37.51
2022-12-14T22:11:53.689Z,36.76
2022-12-14T22:16:56.743Z,36.10
2022-12-14T22:22:00.004Z,34.33
2022-12-14T22:27:03.199Z,33.40
2022-12-14T22:32:07.436Z,34.28
2022-12-14T22:37:14.924Z,35.62
2022-12-14T22:42:17.956Z,36.28
2022-12-14T22:47:21.064Z,36.92
2022-12-14T22:52:25.073Z,36.96
2022-12-14T22:57:29.443Z,36.31
2022-12-14T23:02:32.613Z,35.72
2022-12-14T23:07:35.849Z,35.56
2022-12-14T23:12:57.392Z,33.97
2022-12-14T23:18:24.260Z,32.78
2022-12-14T23:23:45.797Z,32.60
2022-12-14T23:29:07.850Z,32.59
2022-12-14T23:34:29.597Z,32.50
2022-12-14T23:39:51.758Z,32.08
2022-12-14T23:45:13.217Z,32.13
2022-12-14T23:50:35.009Z,32.64
2022-12-14T23:55:56.782Z,32.34
